sensor_id;sensor_type;location;lat;lon;timestamp;P1;durP1;ratioP1;P2;durP2;ratioP2
7001;SDS011;3541;53.230;10.518;2023-09-18T00:00:06;4.72;;;4.32;;
7001;SDS011;3541;53.230;10.518;2023-09-18T00:02:37;4.78;;;4.32;;
7001;SDS011;3541;53.230;10.518;2023-09-18T00:05:04;4.97;;;4.47;;
7001;SDS011;3541;53.230;10.518;2023-09-18T00:07:30;4.22;;;3.83;;
7001;SDS011;3541;53.230;10.518;2023-09-18T00:09:57;5.18;;;4.57;;
7001;SDS011;3541;53.230;10.518;2023-09-18T00:12:23;4.68;;;4.28;;
7001;SDS011;3541;53.230;10.518;2023-09-18T00:14:51;5.25;;;4.50;;
7001;SDS011;3541;53.230;10.518;2023-09-18T00:17:18;4.63;;;4.22;;
7001;SDS011;3541;53.230;10.518;2023-09-18T00:19:46;5.05;;;4.45;;
7001;SDS011;3541;53.230;10.518;2023-09-18T00:22:12;4.47;;;4.07;;
7001;SDS011;3541;53.230;10.518;2023-09-18T00:24:39;6.35;;;4.20;;
7001;SDS011;3541;53.230;10.518;2023-09-18T00:27:05;4.40;;;4.00;;
7001;SDS011;3541;53.230;10.518;2023-09-18T00:29:32;4.75;;;4.35;;
7001;SDS011;3541;53.230;10.518;2023-09-18T00:32:00;4.93;;;4.10;;
7001;SDS011;3541;53.230;10.518;2023-09-18T00:34:26;4.57;;;4.13;;
7001;SDS011;3541;53.230;10.518;2023-09-18T00:36:56;4.88;;;4.38;;
7001;SDS011;3541;53.230;10.518;2023-09-18T00:39:23;4.85;;;4.00;;
7001;SDS011;3541;53.230;10.518;2023-09-18T00:41:50;6.78;;;4.70;;
7001;SDS011;3541;53.230;10.518;2023-09-18T00:44:19;5.20;;;4.38;;
7001;SDS011;3541;53.230;10.518;2023-09-18T00:46:45;5.75;;;4.18;;
7001;SDS011;3541;53.230;10.518;2023-09-18T00:49:14;4.18;;;3.78;;
7001;SDS011;3541;53.230;10.518;2023-09-18T00:51:40;5.05;;;4.55;;
7001;SDS011;3541;53.230;10.518;2023-09-18T00:54:07;4.72;;;4.22;;
7001;SDS011;3541;53.230;10.518;2023-09-18T00:56:35;4.90;;;4.47;;
7001;SDS011;3541;53.230;10.518;2023-09-18T00:59:02;4.22;;;3.83;;
7001;SDS011;3541;53.230;10.518;2023-09-18T01:01:29;4.68;;;3.95;;
7001;SDS011;3541;53.230;10.518;2023-09-18T01:03:55;4.60;;;4.18;;
7001;SDS011;3541;53.230;10.518;2023-09-18T01:06:25;4.80;;;4.40;;
7001;SDS011;3541;53.230;10.518;2023-09-18T01:08:55;4.63;;;4.22;;
7001;SDS011;3541;53.230;10.518;2023-09-18T01:11:24;4.93;;;4.20;;
7001;SDS011;3541;53.230;10.518;2023-09-18T01:13:59;5.00;;;4.32;;
7001;SDS011;3541;53.230;10.518;2023-09-18T01:16:36;5.10;;;4.30;;
7001;SDS011;3541;53.230;10.518;2023-09-18T01:19:10;5.93;;;4.45;;
7001;SDS011;3541;53.230;10.518;2023-09-18T01:21:38;4.75;;;4.25;;
7001;SDS011;3541;53.230;10.518;2023-09-18T01:24:06;4.82;;;4.43;;
7001;SDS011;3541;53.230;10.518;2023-09-18T01:26:33;4.80;;;4.28;;
7001;SDS011;3541;53.230;10.518;2023-09-18T01:28:59;5.22;;;4.57;;
7001;SDS011;3541;53.230;10.518;2023-09-18T01:31:27;4.82;;;4.40;;
7001;SDS011;3541;53.230;10.518;2023-09-18T01:33:54;5.25;;;4.60;;
7001;SDS011;3541;53.230;10.518;2023-09-18T01:36:21;4.55;;;4.15;;
7001;SDS011;3541;53.230;10.518;2023-09-18T01:38:49;5.07;;;4.57;;
7001;SDS011;3541;53.230;10.518;2023-09-18T01:41:17;5.95;;;4.38;;
7001;SDS011;3541;53.230;10.518;2023-09-18T01:43:45;5.63;;;4.20;;
7001;SDS011;3541;53.230;10.518;2023-09-18T01:46:11;5.85;;;4.57;;
7001;SDS011;3541;53.230;10.518;2023-09-18T01:48:44;4.68;;;4.25;;
7001;SDS011;3541;53.230;10.518;2023-09-18T01:51:13;4.93;;;4.43;;
7001;SDS011;3541;53.230;10.518;2023-09-18T01:53:39;5.00;;;4.50;;
7001;SDS011;3541;53.230;10.518;2023-09-18T01:56:06;5.32;;;4.68;;
7001;SDS011;3541;53.230;10.518;2023-09-18T01:58:34;5.15;;;4.60;;
7001;SDS011;3541;53.230;10.518;2023-09-18T02:01:01;4.90;;;4.50;;
7001;SDS011;3541;53.230;10.518;2023-09-18T02:03:28;5.32;;;4.30;;
7001;SDS011;3541;53.230;10.518;2023-09-18T02:05:54;4.40;;;4.00;;
7001;SDS011;3541;53.230;10.518;2023-09-18T02:08:21;5.40;;;4.78;;
7001;SDS011;3541;53.230;10.518;2023-09-18T02:10:47;4.70;;;4.13;;
7001;SDS011;3541;53.230;10.518;2023-09-18T02:13:14;5.25;;;4.70;;
7001;SDS011;3541;53.230;10.518;2023-09-18T02:15:42;5.50;;;4.97;;
7001;SDS011;3541;53.230;10.518;2023-09-18T02:18:09;5.30;;;4.53;;
7001;SDS011;3541;53.230;10.518;2023-09-18T02:20:39;4.70;;;4.30;;
7001;SDS011;3541;53.230;10.518;2023-09-18T02:23:06;4.75;;;4.28;;
7001;SDS011;3541;53.230;10.518;2023-09-18T02:25:33;5.35;;;4.88;;
7001;SDS011;3541;53.230;10.518;2023-09-18T02:27:59;5.43;;;4.18;;
7001;SDS011;3541;53.230;10.518;2023-09-18T02:30:26;5.45;;;3.70;;
7001;SDS011;3541;53.230;10.518;2023-09-18T02:32:54;4.82;;;4.10;;
7001;SDS011;3541;53.230;10.518;2023-09-18T02:35:21;5.18;;;4.68;;
7001;SDS011;3541;53.230;10.518;2023-09-18T02:37:48;5.18;;;4.40;;
7001;SDS011;3541;53.230;10.518;2023-09-18T02:40:14;10.30;;;5.38;;
7001;SDS011;3541;53.230;10.518;2023-09-18T02:42:41;6.28;;;4.75;;
7001;SDS011;3541;53.230;10.518;2023-09-18T02:45:07;5.80;;;4.55;;
7001;SDS011;3541;53.230;10.518;2023-09-18T02:47:34;5.30;;;4.80;;
7001;SDS011;3541;53.230;10.518;2023-09-18T02:50:04;5.25;;;4.78;;
7001;SDS011;3541;53.230;10.518;2023-09-18T02:52:31;5.38;;;4.70;;
7001;SDS011;3541;53.230;10.518;2023-09-18T02:54:58;5.25;;;4.63;;
7001;SDS011;3541;53.230;10.518;2023-09-18T02:57:24;5.72;;;4.57;;
7001;SDS011;3541;53.230;10.518;2023-09-18T02:59:51;4.95;;;4.55;;
7001;SDS011;3541;53.230;10.518;2023-09-18T03:02:17;5.13;;;4.63;;
7001;SDS011;3541;53.230;10.518;2023-09-18T03:04:44;7.78;;;4.60;;
7001;SDS011;3541;53.230;10.518;2023-09-18T03:07:13;4.90;;;4.50;;
7001;SDS011;3541;53.230;10.518;2023-09-18T03:09:41;5.03;;;4.63;;
7001;SDS011;3541;53.230;10.518;2023-09-18T03:12:08;5.38;;;4.70;;
7001;SDS011;3541;53.230;10.518;2023-09-18T03:14:34;5.13;;;4.55;;
7001;SDS011;3541;53.230;10.518;2023-09-18T03:17:01;5.50;;;5.00;;
7001;SDS011;3541;53.230;10.518;2023-09-18T03:19:27;5.80;;;4.65;;
7001;SDS011;3541;53.230;10.518;2023-09-18T03:21:54;5.57;;;5.00;;
7001;SDS011;3541;53.230;10.518;2023-09-18T03:24:22;5.15;;;4.65;;
7001;SDS011;3541;53.230;10.518;2023-09-18T03:26:48;6.18;;;5.20;;
7001;SDS011;3541;53.230;10.518;2023-09-18T03:29:15;5.60;;;4.93;;
7001;SDS011;3541;53.230;10.518;2023-09-18T03:31:42;5.35;;;4.55;;
7001;SDS011;3541;53.230;10.518;2023-09-18T03:34:08;4.57;;;4.18;;
7001;SDS011;3541;53.230;10.518;2023-09-18T03:36:35;6.32;;;5.13;;
7001;SDS011;3541;53.230;10.518;2023-09-18T03:39:02;5.65;;;4.68;;
7001;SDS011;3541;53.230;10.518;2023-09-18T03:41:30;5.18;;;4.68;;
7001;SDS011;3541;53.230;10.518;2023-09-18T03:43:59;4.57;;;4.18;;
7001;SDS011;3541;53.230;10.518;2023-09-18T03:46:25;7.35;;;4.63;;
7001;SDS011;3541;53.230;10.518;2023-09-18T03:48:52;5.45;;;4.93;;
7001;SDS011;3541;53.230;10.518;2023-09-18T03:51:20;5.75;;;4.45;;
7001;SDS011;3541;53.230;10.518;2023-09-18T03:53:46;6.22;;;5.10;;
7001;SDS011;3541;53.230;10.518;2023-09-18T03:56:13;6.20;;;4.57;;
7001;SDS011;3541;53.230;10.518;2023-09-18T03:58:41;6.75;;;5.18;;
7001;SDS011;3541;53.230;10.518;2023-09-18T04:01:09;6.55;;;4.43;;
7001;SDS011;3541;53.230;10.518;2023-09-18T04:03:36;5.43;;;4.80;;
7001;SDS011;3541;53.230;10.518;2023-09-18T04:06:02;5.28;;;4.40;;
7001;SDS011;3541;53.230;10.518;2023-09-18T04:08:29;5.45;;;4.95;;
7001;SDS011;3541;53.230;10.518;2023-09-18T04:10:56;4.97;;;4.38;;
7001;SDS011;3541;53.230;10.518;2023-09-18T04:13:23;5.47;;;4.97;;
7001;SDS011;3541;53.230;10.518;2023-09-18T04:15:50;5.53;;;5.03;;
7001;SDS011;3541;53.230;10.518;2023-09-18T04:18:21;5.22;;;4.72;;
7001;SDS011;3541;53.230;10.518;2023-09-18T04:20:48;5.50;;;4.75;;
7001;SDS011;3541;53.230;10.518;2023-09-18T04:23:17;7.90;;;5.25;;
7001;SDS011;3541;53.230;10.518;2023-09-18T04:25:44;5.38;;;4.88;;
7001;SDS011;3541;53.230;10.518;2023-09-18T04:28:11;5.45;;;4.82;;
7001;SDS011;3541;53.230;10.518;2023-09-18T04:30:38;5.18;;;4.65;;
7001;SDS011;3541;53.230;10.518;2023-09-18T04:33:06;5.15;;;4.65;;
7001;SDS011;3541;53.230;10.518;2023-09-18T04:35:33;5.63;;;5.10;;
7001;SDS011;3541;53.230;10.518;2023-09-18T04:38:00;7.30;;;5.25;;
7001;SDS011;3541;53.230;10.518;2023-09-18T04:40:26;5.50;;;5.00;;
7001;SDS011;3541;53.230;10.518;2023-09-18T04:42:57;5.70;;;4.78;;
7001;SDS011;3541;53.230;10.518;2023-09-18T04:45:23;5.35;;;4.82;;
7001;SDS011;3541;53.230;10.518;2023-09-18T04:47:50;5.25;;;4.68;;
7001;SDS011;3541;53.230;10.518;2023-09-18T04:50:18;5.75;;;5.07;;
7001;SDS011;3541;53.230;10.518;2023-09-18T04:52:45;5.57;;;5.07;;
7001;SDS011;3541;53.230;10.518;2023-09-18T04:55:13;6.28;;;5.18;;
7001;SDS011;3541;53.230;10.518;2023-09-18T04:57:40;5.57;;;4.60;;
7001;SDS011;3541;53.230;10.518;2023-09-18T05:00:07;5.40;;;4.90;;
7001;SDS011;3541;53.230;10.518;2023-09-18T05:02:37;6.40;;;4.95;;
7001;SDS011;3541;53.230;10.518;2023-09-18T05:05:04;5.43;;;4.93;;
7001;SDS011;3541;53.230;10.518;2023-09-18T05:07:35;5.70;;;5.20;;
7001;SDS011;3541;53.230;10.518;2023-09-18T05:10:01;6.05;;;5.13;;
7001;SDS011;3541;53.230;10.518;2023-09-18T05:12:29;5.38;;;4.88;;
7001;SDS011;3541;53.230;10.518;2023-09-18T05:14:56;5.78;;;5.22;;
7001;SDS011;3541;53.230;10.518;2023-09-18T05:17:27;5.22;;;4.72;;
7001;SDS011;3541;53.230;10.518;2023-09-18T05:20:07;9.15;;;5.15;;
7001;SDS011;3541;53.230;10.518;2023-09-18T05:22:38;5.32;;;4.80;;
7001;SDS011;3541;53.230;10.518;2023-09-18T05:25:04;5.65;;;5.15;;
7001;SDS011;3541;53.230;10.518;2023-09-18T05:27:31;5.20;;;4.70;;
7001;SDS011;3541;53.230;10.518;2023-09-18T05:29:58;5.40;;;4.53;;
7001;SDS011;3541;53.230;10.518;2023-09-18T05:32:24;5.57;;;5.00;;
7001;SDS011;3541;53.230;10.518;2023-09-18T05:34:51;5.18;;;4.63;;
7001;SDS011;3541;53.230;10.518;2023-09-18T05:37:18;6.03;;;4.97;;
7001;SDS011;3541;53.230;10.518;2023-09-18T05:39:46;8.25;;;5.20;;
7001;SDS011;3541;53.230;10.518;2023-09-18T05:42:13;5.43;;;4.93;;
7001;SDS011;3541;53.230;10.518;2023-09-18T05:44:40;7.20;;;4.82;;
7001;SDS011;3541;53.230;10.518;2023-09-18T05:47:06;5.68;;;4.93;;
7001;SDS011;3541;53.230;10.518;2023-09-18T05:49:33;5.25;;;4.57;;
7001;SDS011;3541;53.230;10.518;2023-09-18T05:52:00;5.38;;;4.88;;
7001;SDS011;3541;53.230;10.518;2023-09-18T05:54:27;5.47;;;4.93;;
7001;SDS011;3541;53.230;10.518;2023-09-18T05:56:55;5.22;;;4.60;;
7001;SDS011;3541;53.230;10.518;2023-09-18T05:59:21;4.80;;;4.32;;
7001;SDS011;3541;53.230;10.518;2023-09-18T06:01:48;5.78;;;4.72;;
7001;SDS011;3541;53.230;10.518;2023-09-18T06:04:14;5.32;;;4.75;;
7001;SDS011;3541;53.230;10.518;2023-09-18T06:06:42;4.82;;;4.40;;
7001;SDS011;3541;53.230;10.518;2023-09-18T06:09:08;4.90;;;4.47;;
7001;SDS011;3541;53.230;10.518;2023-09-18T06:11:35;5.28;;;4.78;;
7001;SDS011;3541;53.230;10.518;2023-09-18T06:14:03;5.05;;;4.38;;
7001;SDS011;3541;53.230;10.518;2023-09-18T06:16:30;5.43;;;4.70;;
7001;SDS011;3541;53.230;10.518;2023-09-18T06:18:56;5.88;;;4.70;;
7001;SDS011;3541;53.230;10.518;2023-09-18T06:21:25;5.57;;;4.50;;
7001;SDS011;3541;53.230;10.518;2023-09-18T06:23:51;5.15;;;4.65;;
7001;SDS011;3541;53.230;10.518;2023-09-18T06:26:18;5.38;;;4.85;;
7001;SDS011;3541;53.230;10.518;2023-09-18T06:28:43;4.50;;;4.10;;
7001;SDS011;3541;53.230;10.518;2023-09-18T06:31:11;5.88;;;4.55;;
7001;SDS011;3541;53.230;10.518;2023-09-18T06:33:38;4.90;;;4.10;;
7001;SDS011;3541;53.230;10.518;2023-09-18T06:36:05;4.97;;;4.47;;
7001;SDS011;3541;53.230;10.518;2023-09-18T06:38:31;4.38;;;3.97;;
7001;SDS011;3541;53.230;10.518;2023-09-18T06:40:58;5.13;;;4.63;;
7001;SDS011;3541;53.230;10.518;2023-09-18T06:43:24;4.78;;;4.38;;
7001;SDS011;3541;53.230;10.518;2023-09-18T06:45:51;5.53;;;4.25;;
7001;SDS011;3541;53.230;10.518;2023-09-18T06:48:19;5.03;;;4.45;;
7001;SDS011;3541;53.230;10.518;2023-09-18T06:50:46;7.28;;;4.57;;
7001;SDS011;3541;53.230;10.518;2023-09-18T06:53:13;5.15;;;4.65;;
7001;SDS011;3541;53.230;10.518;2023-09-18T06:55:39;6.25;;;4.78;;
7001;SDS011;3541;53.230;10.518;2023-09-18T06:58:06;5.00;;;4.35;;
7001;SDS011;3541;53.230;10.518;2023-09-18T07:00:32;4.65;;;4.20;;
7001;SDS011;3541;53.230;10.518;2023-09-18T07:02:59;4.85;;;4.35;;
7001;SDS011;3541;53.230;10.518;2023-09-18T07:05:27;5.03;;;3.97;;
7001;SDS011;3541;53.230;10.518;2023-09-18T07:07:53;4.78;;;4.38;;
7001;SDS011;3541;53.230;10.518;2023-09-18T07:10:22;5.72;;;3.88;;
7001;SDS011;3541;53.230;10.518;2023-09-18T07:12:48;5.15;;;4.35;;
7001;SDS011;3541;53.230;10.518;2023-09-18T07:15:15;6.97;;;4.15;;
7001;SDS011;3541;53.230;10.518;2023-09-18T07:17:42;4.57;;;4.18;;
7001;SDS011;3541;53.230;10.518;2023-09-18T07:20:09;6.60;;;4.30;;
7001;SDS011;3541;53.230;10.518;2023-09-18T07:22:40;6.28;;;4.78;;
7001;SDS011;3541;53.230;10.518;2023-09-18T07:25:07;5.05;;;4.47;;
7001;SDS011;3541;53.230;10.518;2023-09-18T07:27:33;5.03;;;4.60;;
7001;SDS011;3541;53.230;10.518;2023-09-18T07:30:01;6.60;;;4.63;;
7001;SDS011;3541;53.230;10.518;2023-09-18T07:32:29;5.43;;;4.78;;
7001;SDS011;3541;53.230;10.518;2023-09-18T07:34:56;4.97;;;4.40;;
7001;SDS011;3541;53.230;10.518;2023-09-18T07:37:22;4.50;;;4.10;;
7001;SDS011;3541;53.230;10.518;2023-09-18T07:39:50;4.70;;;4.30;;
7001;SDS011;3541;53.230;10.518;2023-09-18T07:42:17;4.93;;;4.53;;
7001;SDS011;3541;53.230;10.518;2023-09-18T07:44:43;5.22;;;4.00;;
7001;SDS011;3541;53.230;10.518;2023-09-18T07:47:10;4.95;;;4.45;;
7001;SDS011;3541;53.230;10.518;2023-09-18T07:49:36;8.88;;;4.68;;
7001;SDS011;3541;53.230;10.518;2023-09-18T07:52:03;4.53;;;4.13;;
7001;SDS011;3541;53.230;10.518;2023-09-18T07:54:30;6.50;;;4.25;;
7001;SDS011;3541;53.230;10.518;2023-09-18T07:56:58;4.80;;;4.40;;
7001;SDS011;3541;53.230;10.518;2023-09-18T07:59:26;4.40;;;4.00;;
7001;SDS011;3541;53.230;10.518;2023-09-18T08:01:53;4.38;;;3.97;;
7001;SDS011;3541;53.230;10.518;2023-09-18T08:04:20;4.20;;;3.80;;
7001;SDS011;3541;53.230;10.518;2023-09-18T08:06:46;4.95;;;4.20;;
7001;SDS011;3541;53.230;10.518;2023-09-18T08:09:13;6.03;;;4.28;;
7001;SDS011;3541;53.230;10.518;2023-09-18T08:11:40;4.72;;;4.28;;
7001;SDS011;3541;53.230;10.518;2023-09-18T08:14:09;5.78;;;4.05;;
7001;SDS011;3541;53.230;10.518;2023-09-18T08:16:37;4.90;;;4.30;;
7001;SDS011;3541;53.230;10.518;2023-09-18T08:19:04;4.40;;;4.00;;
7001;SDS011;3541;53.230;10.518;2023-09-18T08:21:31;4.70;;;4.30;;
7001;SDS011;3541;53.230;10.518;2023-09-18T08:23:58;5.93;;;4.13;;
7001;SDS011;3541;53.230;10.518;2023-09-18T08:26:24;4.70;;;4.22;;
7001;SDS011;3541;53.230;10.518;2023-09-18T08:28:52;7.43;;;4.32;;
7001;SDS011;3541;53.230;10.518;2023-09-18T08:31:20;4.25;;;3.83;;
7001;SDS011;3541;53.230;10.518;2023-09-18T08:33:48;5.40;;;4.55;;
7001;SDS011;3541;53.230;10.518;2023-09-18T08:36:14;6.80;;;4.40;;
7001;SDS011;3541;53.230;10.518;2023-09-18T08:38:41;7.65;;;4.32;;
7001;SDS011;3541;53.230;10.518;2023-09-18T08:41:09;4.95;;;4.55;;
7001;SDS011;3541;53.230;10.518;2023-09-18T08:43:36;4.95;;;4.55;;
7001;SDS011;3541;53.230;10.518;2023-09-18T08:46:06;4.70;;;4.30;;
7001;SDS011;3541;53.230;10.518;2023-09-18T08:48:35;5.25;;;4.40;;
7001;SDS011;3541;53.230;10.518;2023-09-18T08:51:02;5.32;;;4.82;;
7001;SDS011;3541;53.230;10.518;2023-09-18T08:53:30;5.72;;;4.88;;
7001;SDS011;3541;53.230;10.518;2023-09-18T08:55:57;4.45;;;3.97;;
7001;SDS011;3541;53.230;10.518;2023-09-18T08:58:26;5.38;;;4.22;;
7001;SDS011;3541;53.230;10.518;2023-09-18T09:00:54;5.13;;;4.28;;
7001;SDS011;3541;53.230;10.518;2023-09-18T09:03:20;4.85;;;4.45;;
7001;SDS011;3541;53.230;10.518;2023-09-18T09:05:48;5.35;;;4.53;;
7001;SDS011;3541;53.230;10.518;2023-09-18T09:08:15;4.88;;;4.47;;
7001;SDS011;3541;53.230;10.518;2023-09-18T09:10:42;5.57;;;4.35;;
7001;SDS011;3541;53.230;10.518;2023-09-18T09:13:08;5.00;;;4.50;;
7001;SDS011;3541;53.230;10.518;2023-09-18T09:15:43;5.10;;;4.60;;
7001;SDS011;3541;53.230;10.518;2023-09-18T09:18:11;6.28;;;4.60;;
7001;SDS011;3541;53.230;10.518;2023-09-18T09:20:39;4.97;;;4.47;;
7001;SDS011;3541;53.230;10.518;2023-09-18T09:23:07;6.07;;;4.45;;
7001;SDS011;3541;53.230;10.518;2023-09-18T09:25:35;5.05;;;3.92;;
7001;SDS011;3541;53.230;10.518;2023-09-18T09:28:03;5.47;;;4.43;;
7001;SDS011;3541;53.230;10.518;2023-09-18T09:30:31;8.52;;;4.07;;
7001;SDS011;3541;53.230;10.518;2023-09-18T09:32:59;5.90;;;4.00;;
7001;SDS011;3541;53.230;10.518;2023-09-18T09:35:27;5.95;;;4.28;;
7001;SDS011;3541;53.230;10.518;2023-09-18T09:37:59;4.90;;;4.32;;
7001;SDS011;3541;53.230;10.518;2023-09-18T09:40:28;4.53;;;4.13;;
7001;SDS011;3541;53.230;10.518;2023-09-18T09:42:56;6.03;;;4.63;;
7001;SDS011;3541;53.230;10.518;2023-09-18T09:45:27;6.03;;;4.60;;
7001;SDS011;3541;53.230;10.518;2023-09-18T09:47:55;4.75;;;4.25;;
7001;SDS011;3541;53.230;10.518;2023-09-18T09:50:23;7.47;;;4.43;;
7001;SDS011;3541;53.230;10.518;2023-09-18T09:52:52;6.65;;;4.30;;
7001;SDS011;3541;53.230;10.518;2023-09-18T09:55:23;4.75;;;3.95;;
7001;SDS011;3541;53.230;10.518;2023-09-18T09:57:55;5.53;;;4.05;;
7001;SDS011;3541;53.230;10.518;2023-09-18T10:00:25;5.78;;;4.22;;
7001;SDS011;3541;53.230;10.518;2023-09-18T10:02:57;7.05;;;4.43;;
7001;SDS011;3541;53.230;10.518;2023-09-18T10:05:30;5.28;;;4.28;;
7001;SDS011;3541;53.230;10.518;2023-09-18T10:08:00;5.20;;;4.00;;
7001;SDS011;3541;53.230;10.518;2023-09-18T10:10:31;5.60;;;4.15;;
7001;SDS011;3541;53.230;10.518;2023-09-18T10:13:02;6.75;;;4.43;;
7001;SDS011;3541;53.230;10.518;2023-09-18T10:15:34;5.85;;;4.22;;
7001;SDS011;3541;53.230;10.518;2023-09-18T10:18:04;5.68;;;3.88;;
7001;SDS011;3541;53.230;10.518;2023-09-18T10:20:42;5.88;;;4.18;;
7001;SDS011;3541;53.230;10.518;2023-09-18T10:23:15;4.97;;;3.67;;
7001;SDS011;3541;53.230;10.518;2023-09-18T10:25:53;7.03;;;3.97;;
7001;SDS011;3541;53.230;10.518;2023-09-18T10:28:26;6.03;;;4.40;;
7001;SDS011;3541;53.230;10.518;2023-09-18T10:30:56;5.30;;;4.22;;
7001;SDS011;3541;53.230;10.518;2023-09-18T10:33:23;5.53;;;4.30;;
7001;SDS011;3541;53.230;10.518;2023-09-18T10:35:51;6.00;;;4.10;;
7001;SDS011;3541;53.230;10.518;2023-09-18T10:38:19;6.40;;;4.63;;
7001;SDS011;3541;53.230;10.518;2023-09-18T10:40:47;4.82;;;4.00;;
7001;SDS011;3541;53.230;10.518;2023-09-18T10:43:15;5.05;;;4.00;;
7001;SDS011;3541;53.230;10.518;2023-09-18T10:45:44;7.75;;;4.40;;
7001;SDS011;3541;53.230;10.518;2023-09-18T10:48:12;5.80;;;4.18;;
7001;SDS011;3541;53.230;10.518;2023-09-18T10:50:41;7.80;;;4.55;;
7001;SDS011;3541;53.230;10.518;2023-09-18T10:53:10;5.72;;;4.40;;
7001;SDS011;3541;53.230;10.518;2023-09-18T10:55:37;6.88;;;4.60;;
7001;SDS011;3541;53.230;10.518;2023-09-18T10:58:04;6.70;;;4.68;;
7001;SDS011;3541;53.230;10.518;2023-09-18T11:00:31;9.40;;;4.18;;
7001;SDS011;3541;53.230;10.518;2023-09-18T11:03:12;6.45;;;4.60;;
7001;SDS011;3541;53.230;10.518;2023-09-18T11:05:42;5.43;;;3.95;;
7001;SDS011;3541;53.230;10.518;2023-09-18T11:08:23;7.55;;;4.78;;
7001;SDS011;3541;53.230;10.518;2023-09-18T11:11:05;5.03;;;4.38;;
7001;SDS011;3541;53.230;10.518;2023-09-18T11:13:35;7.97;;;4.03;;
7001;SDS011;3541;53.230;10.518;2023-09-18T11:16:13;5.13;;;3.95;;
7001;SDS011;3541;53.230;10.518;2023-09-18T11:18:47;5.50;;;3.95;;
7001;SDS011;3541;53.230;10.518;2023-09-18T11:21:16;5.22;;;3.90;;
7001;SDS011;3541;53.230;10.518;2023-09-18T11:23:44;5.55;;;3.80;;
7001;SDS011;3541;53.230;10.518;2023-09-18T11:26:10;6.70;;;4.38;;
7001;SDS011;3541;53.230;10.518;2023-09-18T11:28:37;6.90;;;4.20;;
7001;SDS011;3541;53.230;10.518;2023-09-18T11:31:04;8.40;;;4.55;;
7001;SDS011;3541;53.230;10.518;2023-09-18T11:33:33;6.78;;;3.90;;
7001;SDS011;3541;53.230;10.518;2023-09-18T11:36:06;7.05;;;4.00;;
7001;SDS011;3541;53.230;10.518;2023-09-18T11:38:50;6.68;;;4.38;;
7001;SDS011;3541;53.230;10.518;2023-09-18T11:41:22;6.43;;;4.03;;
7001;SDS011;3541;53.230;10.518;2023-09-18T11:43:51;5.43;;;3.90;;
7001;SDS011;3541;53.230;10.518;2023-09-18T11:46:18;7.93;;;3.92;;
7001;SDS011;3541;53.230;10.518;2023-09-18T11:48:47;7.78;;;4.40;;
7001;SDS011;3541;53.230;10.518;2023-09-18T11:51:21;4.80;;;3.70;;
7001;SDS011;3541;53.230;10.518;2023-09-18T11:53:49;10.73;;;4.22;;
7001;SDS011;3541;53.230;10.518;2023-09-18T11:56:20;7.88;;;3.78;;
7001;SDS011;3541;53.230;10.518;2023-09-18T11:58:47;6.90;;;3.97;;
7001;SDS011;3541;53.230;10.518;2023-09-18T12:01:14;10.95;;;4.30;;
7001;SDS011;3541;53.230;10.518;2023-09-18T12:03:41;5.68;;;3.35;;
7001;SDS011;3541;53.230;10.518;2023-09-18T12:06:07;6.55;;;4.35;;
7001;SDS011;3541;53.230;10.518;2023-09-18T12:08:39;5.82;;;3.53;;
7001;SDS011;3541;53.230;10.518;2023-09-18T12:11:07;7.90;;;3.90;;
7001;SDS011;3541;53.230;10.518;2023-09-18T12:13:33;7.50;;;3.88;;
7001;SDS011;3541;53.230;10.518;2023-09-18T12:16:01;5.63;;;3.10;;
7001;SDS011;3541;53.230;10.518;2023-09-18T12:18:30;6.38;;;3.63;;
7001;SDS011;3541;53.230;10.518;2023-09-18T12:20:59;6.38;;;3.60;;
7001;SDS011;3541;53.230;10.518;2023-09-18T12:23:29;9.35;;;3.28;;
7001;SDS011;3541;53.230;10.518;2023-09-18T12:26:03;6.97;;;3.28;;
7001;SDS011;3541;53.230;10.518;2023-09-18T12:28:32;5.72;;;3.05;;
7001;SDS011;3541;53.230;10.518;2023-09-18T12:30:59;4.68;;;2.85;;
7001;SDS011;3541;53.230;10.518;2023-09-18T12:33:29;5.47;;;3.08;;
7001;SDS011;3541;53.230;10.518;2023-09-18T12:35:59;5.72;;;2.83;;
7001;SDS011;3541;53.230;10.518;2023-09-18T12:38:26;4.45;;;2.90;;
7001;SDS011;3541;53.230;10.518;2023-09-18T12:40:53;7.07;;;3.28;;
7001;SDS011;3541;53.230;10.518;2023-09-18T12:43:21;9.20;;;3.40;;
7001;SDS011;3541;53.230;10.518;2023-09-18T12:45:49;6.15;;;3.50;;
7001;SDS011;3541;53.230;10.518;2023-09-18T12:48:17;9.02;;;3.83;;
7001;SDS011;3541;53.230;10.518;2023-09-18T12:50:43;3.65;;;2.80;;
7001;SDS011;3541;53.230;10.518;2023-09-18T12:53:10;6.90;;;3.20;;
7001;SDS011;3541;53.230;10.518;2023-09-18T12:55:38;4.97;;;2.75;;
7001;SDS011;3541;53.230;10.518;2023-09-18T12:58:05;4.97;;;2.85;;
7001;SDS011;3541;53.230;10.518;2023-09-18T13:00:40;4.43;;;2.70;;
7001;SDS011;3541;53.230;10.518;2023-09-18T13:03:12;4.43;;;2.85;;
7001;SDS011;3541;53.230;10.518;2023-09-18T13:05:39;7.18;;;3.30;;
7001;SDS011;3541;53.230;10.518;2023-09-18T13:08:05;3.42;;;2.80;;
7001;SDS011;3541;53.230;10.518;2023-09-18T13:10:43;4.00;;;2.70;;
7001;SDS011;3541;53.230;10.518;2023-09-18T13:13:15;4.63;;;2.67;;
7001;SDS011;3541;53.230;10.518;2023-09-18T13:15:44;4.13;;;2.50;;
7001;SDS011;3541;53.230;10.518;2023-09-18T13:18:13;6.47;;;2.35;;
7001;SDS011;3541;53.230;10.518;2023-09-18T13:20:40;2.53;;;2.10;;
7001;SDS011;3541;53.230;10.518;2023-09-18T13:23:07;5.35;;;2.60;;
7001;SDS011;3541;53.230;10.518;2023-09-18T13:25:35;5.07;;;2.67;;
7001;SDS011;3541;53.230;10.518;2023-09-18T13:28:03;4.55;;;2.13;;
7001;SDS011;3541;53.230;10.518;2023-09-18T13:30:31;3.88;;;1.98;;
7001;SDS011;3541;53.230;10.518;2023-09-18T13:33:03;7.78;;;2.40;;
7001;SDS011;3541;53.230;10.518;2023-09-18T13:35:32;6.85;;;2.75;;
7001;SDS011;3541;53.230;10.518;2023-09-18T13:37:58;5.53;;;2.67;;
7001;SDS011;3541;53.230;10.518;2023-09-18T13:40:25;4.68;;;2.70;;
7001;SDS011;3541;53.230;10.518;2023-09-18T13:42:53;4.38;;;2.80;;
7001;SDS011;3541;53.230;10.518;2023-09-18T13:45:19;4.05;;;2.22;;
7001;SDS011;3541;53.230;10.518;2023-09-18T13:47:46;6.13;;;2.50;;
7001;SDS011;3541;53.230;10.518;2023-09-18T13:50:15;3.72;;;2.38;;
7001;SDS011;3541;53.230;10.518;2023-09-18T13:52:42;4.00;;;2.20;;
7001;SDS011;3541;53.230;10.518;2023-09-18T13:55:08;7.50;;;3.00;;
7001;SDS011;3541;53.230;10.518;2023-09-18T13:57:35;5.07;;;2.63;;
7001;SDS011;3541;53.230;10.518;2023-09-18T14:00:02;4.75;;;2.55;;
7001;SDS011;3541;53.230;10.518;2023-09-18T14:02:32;4.57;;;2.20;;
7001;SDS011;3541;53.230;10.518;2023-09-18T14:04:59;5.60;;;2.30;;
7001;SDS011;3541;53.230;10.518;2023-09-18T14:07:26;4.97;;;2.60;;
7001;SDS011;3541;53.230;10.518;2023-09-18T14:09:53;4.50;;;2.17;;
7001;SDS011;3541;53.230;10.518;2023-09-18T14:12:20;4.60;;;2.30;;
7001;SDS011;3541;53.230;10.518;2023-09-18T14:14:47;3.47;;;2.33;;
7001;SDS011;3541;53.230;10.518;2023-09-18T14:17:13;3.38;;;2.30;;
7001;SDS011;3541;53.230;10.518;2023-09-18T14:19:42;6.30;;;2.30;;
7001;SDS011;3541;53.230;10.518;2023-09-18T14:22:09;5.10;;;2.30;;
7001;SDS011;3541;53.230;10.518;2023-09-18T14:24:37;8.00;;;2.58;;
7001;SDS011;3541;53.230;10.518;2023-09-18T14:27:04;3.55;;;2.30;;
7001;SDS011;3541;53.230;10.518;2023-09-18T14:29:31;6.15;;;2.35;;
7001;SDS011;3541;53.230;10.518;2023-09-18T14:31:58;7.22;;;2.47;;
7001;SDS011;3541;53.230;10.518;2023-09-18T14:34:25;4.80;;;2.20;;
7001;SDS011;3541;53.230;10.518;2023-09-18T14:36:51;5.28;;;2.17;;
7001;SDS011;3541;53.230;10.518;2023-09-18T14:39:18;6.85;;;2.88;;
7001;SDS011;3541;53.230;10.518;2023-09-18T14:41:46;4.32;;;2.28;;
7001;SDS011;3541;53.230;10.518;2023-09-18T14:44:12;3.65;;;2.35;;
7001;SDS011;3541;53.230;10.518;2023-09-18T14:46:40;4.93;;;2.58;;
7001;SDS011;3541;53.230;10.518;2023-09-18T14:49:08;4.85;;;2.30;;
7001;SDS011;3541;53.230;10.518;2023-09-18T14:51:34;3.22;;;2.40;;
7001;SDS011;3541;53.230;10.518;2023-09-18T14:54:01;8.00;;;2.53;;
7001;SDS011;3541;53.230;10.518;2023-09-18T14:56:29;4.63;;;2.60;;
7001;SDS011;3541;53.230;10.518;2023-09-18T14:58:57;5.40;;;2.20;;
7001;SDS011;3541;53.230;10.518;2023-09-18T15:01:24;5.47;;;2.40;;
7001;SDS011;3541;53.230;10.518;2023-09-18T15:03:50;4.60;;;2.47;;